sensor_id;sensor_type;location;lat;lon;timestamp;temperature;humidity
5392;DHT22;2719;53.624;9.786;2024-01-11T00:00:45;1.40;99.90
5392;DHT22;2719;53.624;9.786;2024-01-11T00:03:13;1.40;99.90
5392;DHT22;2719;53.624;9.786;2024-01-11T00:05:39;1.50;99.90
5392;DHT22;2719;53.624;9.786;2024-01-11T00:08:07;1.40;99.90
5392;DHT22;2719;53.624;9.786;2024-01-11T00:10:33;1.40;99.90
5392;DHT22;2719;53.624;9.786;2024-01-11T00:13:00;1.30;99.90
5392;DHT22;2719;53.624;9.786;2024-01-11T00:15:26;1.10;99.90
5392;DHT22;2719;53.624;9.786;2024-01-11T00:17:53;1.10;99.90
5392;DHT22;2719;53.624;9.786;2024-01-11T00:20:21;1.10;99.90
5392;DHT22;2719;53.624;9.786;2024-01-11T00:22:48;1.10;99.90
5392;DHT22;2719;53.624;9.786;2024-01-11T00:25:14;1.20;99.90
5392;DHT22;2719;53.624;9.786;2024-01-11T00:27:41;1.10;99.90
5392;DHT22;2719;53.624;9.786;2024-01-11T00:30:08;1.20;99.90
5392;DHT22;2719;53.624;9.786;2024-01-11T00:32:34;1.20;99.90
5392;DHT22;2719;53.624;9.786;2024-01-11T00:35:00;1.30;99.90
5392;DHT22;2719;53.624;9.786;2024-01-11T00:37:28;1.20;99.90
5392;DHT22;2719;53.624;9.786;2024-01-11T00:39:55;1.30;99.90
5392;DHT22;2719;53.624;9.786;2024-01-11T00:42:21;1.30;99.90
5392;DHT22;2719;53.624;9.786;2024-01-11T00:44:48;1.30;99.90
5392;DHT22;2719;53.624;9.786;2024-01-11T00:47:15;1.30;99.90
5392;DHT22;2719;53.624;9.786;2024-01-11T00:49:42;1.20;99.90
5392;DHT22;2719;53.624;9.786;2024-01-11T00:52:09;1.20;99.90
5392;DHT22;2719;53.624;9.786;2024-01-11T00:54:40;1.20;99.90
5392;DHT22;2719;53.624;9.786;2024-01-11T00:57:07;1.20;99.90
5392;DHT22;2719;53.624;9.786;2024-01-11T00:59:33;1.20;99.90
5392;DHT22;2719;53.624;9.786;2024-01-11T01:02:00;1.20;99.90
5392;DHT22;2719;53.624;9.786;2024-01-11T01:04:27;1.10;99.90
5392;DHT22;2719;53.624;9.786;2024-01-11T01:06:53;1.00;99.90
5392;DHT22;2719;53.624;9.786;2024-01-11T01:09:19;0.80;99.90
5392;DHT22;2719;53.624;9.786;2024-01-11T01:11:47;0.80;99.90
5392;DHT22;2719;53.624;9.786;2024-01-11T01:14:13;0.90;99.90
5392;DHT22;2719;53.624;9.786;2024-01-11T01:16:40;0.80;99.90
5392;DHT22;2719;53.624;9.786;2024-01-11T01:19:06;0.70;99.90
5392;DHT22;2719;53.624;9.786;2024-01-11T01:21:33;0.70;99.90
5392;DHT22;2719;53.624;9.786;2024-01-11T01:24:00;0.60;99.90
5392;DHT22;2719;53.624;9.786;2024-01-11T01:26:26;0.60;99.90
5392;DHT22;2719;53.624;9.786;2024-01-11T01:28:54;0.60;99.90
5392;DHT22;2719;53.624;9.786;2024-01-11T01:31:21;0.60;99.90
5392;DHT22;2719;53.624;9.786;2024-01-11T01:33:48;0.40;99.90
5392;DHT22;2719;53.624;9.786;2024-01-11T01:36:14;0.50;99.90
5392;DHT22;2719;53.624;9.786;2024-01-11T01:38:41;0.50;99.90
5392;DHT22;2719;53.624;9.786;2024-01-11T01:41:07;0.60;99.90
5392;DHT22;2719;53.624;9.786;2024-01-11T01:43:34;0.60;99.90
5392;DHT22;2719;53.624;9.786;2024-01-11T01:46:02;0.50;99.90
5392;DHT22;2719;53.624;9.786;2024-01-11T01:48:30;0.30;99.90
5392;DHT22;2719;53.624;9.786;2024-01-11T01:50:56;0.30;99.90
5392;DHT22;2719;53.624;9.786;2024-01-11T01:53:24;0.30;99.90
5392;DHT22;2719;53.624;9.786;2024-01-11T01:55:54;0.40;99.90
5392;DHT22;2719;53.624;9.786;2024-01-11T01:58:21;0.50;99.90
5392;DHT22;2719;53.624;9.786;2024-01-11T02:00:50;0.60;99.90
5392;DHT22;2719;53.624;9.786;2024-01-11T02:03:18;0.50;99.90
5392;DHT22;2719;53.624;9.786;2024-01-11T02:05:45;0.50;99.90
5392;DHT22;2719;53.624;9.786;2024-01-11T02:08:15;0.40;99.90
5392;DHT22;2719;53.624;9.786;2024-01-11T02:10:43;0.50;99.90
5392;DHT22;2719;53.624;9.786;2024-01-11T02:13:10;0.40;99.90
5392;DHT22;2719;53.624;9.786;2024-01-11T02:15:37;0.40;99.90
5392;DHT22;2719;53.624;9.786;2024-01-11T02:18:04;0.50;99.90
5392;DHT22;2719;53.624;9.786;2024-01-11T02:20:32;0.50;99.90
5392;DHT22;2719;53.624;9.786;2024-01-11T02:23:03;0.60;99.90
5392;DHT22;2719;53.624;9.786;2024-01-11T02:25:32;0.60;99.90
5392;DHT22;2719;53.624;9.786;2024-01-11T02:27:59;0.70;99.90
5392;DHT22;2719;53.624;9.786;2024-01-11T02:30:26;0.70;99.90
5392;DHT22;2719;53.624;9.786;2024-01-11T02:32:52;0.80;99.90
5392;DHT22;2719;53.624;9.786;2024-01-11T02:35:19;0.80;99.90
5392;DHT22;2719;53.624;9.786;2024-01-11T02:37:46;0.80;99.90
5392;DHT22;2719;53.624;9.786;2024-01-11T02:40:14;0.90;99.90
5392;DHT22;2719;53.624;9.786;2024-01-11T02:42:42;0.90;99.90
5392;DHT22;2719;53.624;9.786;2024-01-11T02:45:10;0.80;99.90
5392;DHT22;2719;53.624;9.786;2024-01-11T02:47:37;0.90;99.90
5392;DHT22;2719;53.624;9.786;2024-01-11T02:50:04;0.70;99.90
5392;DHT22;2719;53.624;9.786;2024-01-11T02:52:30;0.70;99.90
5392;DHT22;2719;53.624;9.786;2024-01-11T02:54:57;0.70;99.90
5392;DHT22;2719;53.624;9.786;2024-01-11T02:57:24;0.90;99.90
5392;DHT22;2719;53.624;9.786;2024-01-11T02:59:52;0.90;99.90
5392;DHT22;2719;53.624;9.786;2024-01-11T03:02:18;0.80;99.90
5392;DHT22;2719;53.624;9.786;2024-01-11T03:04:45;0.80;99.90
5392;DHT22;2719;53.624;9.786;2024-01-11T03:07:12;0.90;99.90
5392;DHT22;2719;53.624;9.786;2024-01-11T03:09:38;0.80;99.90
5392;DHT22;2719;53.624;9.786;2024-01-11T03:12:05;0.80;99.90
5392;DHT22;2719;53.624;9.786;2024-01-11T03:14:32;0.80;99.90
5392;DHT22;2719;53.624;9.786;2024-01-11T03:17:01;0.80;99.90
5392;DHT22;2719;53.624;9.786;2024-01-11T03:19:27;0.90;99.90
5392;DHT22;2719;53.624;9.786;2024-01-11T03:21:54;0.90;99.90
5392;DHT22;2719;53.624;9.786;2024-01-11T03:24:21;0.80;99.90
5392;DHT22;2719;53.624;9.786;2024-01-11T03:26:47;0.90;99.90
5392;DHT22;2719;53.624;9.786;2024-01-11T03:29:14;0.90;99.90
5392;DHT22;2719;53.624;9.786;2024-01-11T03:31:41;0.80;99.90
5392;DHT22;2719;53.624;9.786;2024-01-11T03:34:11;0.80;99.90
5392;DHT22;2719;53.624;9.786;2024-01-11T03:36:38;0.80;99.90
5392;DHT22;2719;53.624;9.786;2024-01-11T03:39:05;0.70;99.90
5392;DHT22;2719;53.624;9.786;2024-01-11T03:41:31;0.70;99.90
5392;DHT22;2719;53.624;9.786;2024-01-11T03:43:58;0.70;99.90
5392;DHT22;2719;53.624;9.786;2024-01-11T03:46:24;0.70;99.90
5392;DHT22;2719;53.624;9.786;2024-01-11T03:48:51;0.70;99.90
5392;DHT22;2719;53.624;9.786;2024-01-11T03:51:19;0.70;99.90
5392;DHT22;2719;53.624;9.786;2024-01-11T03:53:46;0.60;99.90
5392;DHT22;2719;53.624;9.786;2024-01-11T03:56:12;0.50;99.90
5392;DHT22;2719;53.624;9.786;2024-01-11T03:58:39;0.50;99.90
5392;DHT22;2719;53.624;9.786;2024-01-11T04:01:07;0.50;99.90
5392;DHT22;2719;53.624;9.786;2024-01-11T04:03:35;0.50;99.90
5392;DHT22;2719;53.624;9.786;2024-01-11T04:06:02;0.60;99.90
5392;DHT22;2719;53.624;9.786;2024-01-11T04:08:30;0.60;99.90
5392;DHT22;2719;53.624;9.786;2024-01-11T04:10:57;0.70;99.90
5392;DHT22;2719;53.624;9.786;2024-01-11T04:13:23;0.70;99.90
5392;DHT22;2719;53.624;9.786;2024-01-11T04:15:50;0.80;99.90
5392;DHT22;2719;53.624;9.786;2024-01-11T04:18:17;0.80;99.90
5392;DHT22;2719;53.624;9.786;2024-01-11T04:20:43;0.70;99.90
5392;DHT22;2719;53.624;9.786;2024-01-11T04:23:10;0.60;99.90
5392;DHT22;2719;53.624;9.786;2024-01-11T04:25:38;0.60;99.90
5392;DHT22;2719;53.624;9.786;2024-01-11T04:28:05;0.60;99.90
5392;DHT22;2719;53.624;9.786;2024-01-11T04:30:31;0.50;99.90
5392;DHT22;2719;53.624;9.786;2024-01-11T04:32:58;0.50;99.90
5392;DHT22;2719;53.624;9.786;2024-01-11T04:35:25;0.50;99.90
5392;DHT22;2719;53.624;9.786;2024-01-11T04:37:51;0.50;99.90
5392;DHT22;2719;53.624;9.786;2024-01-11T04:40:18;0.50;99.90
5392;DHT22;2719;53.624;9.786;2024-01-11T04:42:46;0.40;99.90
5392;DHT22;2719;53.624;9.786;2024-01-11T04:45:13;0.50;99.90
5392;DHT22;2719;53.624;9.786;2024-01-11T04:47:39;0.60;99.90
5392;DHT22;2719;53.624;9.786;2024-01-11T04:50:08;0.70;99.90
5392;DHT22;2719;53.624;9.786;2024-01-11T04:52:35;0.80;99.90
5392;DHT22;2719;53.624;9.786;2024-01-11T04:55:01;0.60;99.90
5392;DHT22;2719;53.624;9.786;2024-01-11T04:57:28;0.70;99.90
5392;DHT22;2719;53.624;9.786;2024-01-11T04:59:56;0.90;99.90
5392;DHT22;2719;53.624;9.786;2024-01-11T05:02:22;0.90;99.90
5392;DHT22;2719;53.624;9.786;2024-01-11T05:04:49;0.90;99.90
5392;DHT22;2719;53.624;9.786;2024-01-11T05:07:16;0.90;99.90
5392;DHT22;2719;53.624;9.786;2024-01-11T05:09:42;0.70;99.90
5392;DHT22;2719;53.624;9.786;2024-01-11T05:12:09;0.70;99.90
5392;DHT22;2719;53.624;9.786;2024-01-11T05:14:35;0.80;99.90
5392;DHT22;2719;53.624;9.786;2024-01-11T05:17:04;0.80;99.90
5392;DHT22;2719;53.624;9.786;2024-01-11T05:19:30;0.70;99.90
5392;DHT22;2719;53.624;9.786;2024-01-11T05:21:57;0.70;99.90
5392;DHT22;2719;53.624;9.786;2024-01-11T05:24:24;0.60;99.90
5392;DHT22;2719;53.624;9.786;2024-01-11T05:26:50;0.60;99.90
5392;DHT22;2719;53.624;9.786;2024-01-11T05:29:17;0.60;99.90
5392;DHT22;2719;53.624;9.786;2024-01-11T05:31:44;0.70;99.90
5392;DHT22;2719;53.624;9.786;2024-01-11T05:34:12;0.80;99.90
5392;DHT22;2719;53.624;9.786;2024-01-11T05:36:38;0.80;99.90
5392;DHT22;2719;53.624;9.786;2024-01-11T05:39:05;0.80;99.90
5392;DHT22;2719;53.624;9.786;2024-01-11T05:41:32;0.80;99.90
5392;DHT22;2719;53.624;9.786;2024-01-11T05:43:59;0.70;99.90
5392;DHT22;2719;53.624;9.786;2024-01-11T05:46:26;0.80;99.90
5392;DHT22;2719;53.624;9.786;2024-01-11T05:48:52;0.80;99.90
5392;DHT22;2719;53.624;9.786;2024-01-11T05:51:20;0.90;99.90
5392;DHT22;2719;53.624;9.786;2024-01-11T05:53:47;1.00;99.90
5392;DHT22;2719;53.624;9.786;2024-01-11T05:56:14;1.10;99.90
5392;DHT22;2719;53.624;9.786;2024-01-11T05:58:40;1.20;99.90
5392;DHT22;2719;53.624;9.786;2024-01-11T06:01:07;1.20;99.90
5392;DHT22;2719;53.624;9.786;2024-01-11T06:03:34;1.10;99.90
5392;DHT22;2719;53.624;9.786;2024-01-11T06:06:00;1.10;99.90
5392;DHT22;2719;53.624;9.786;2024-01-11T06:08:29;1.20;99.90
5392;DHT22;2719;53.624;9.786;2024-01-11T06:10:56;1.20;99.90
5392;DHT22;2719;53.624;9.786;2024-01-11T06:13:23;1.20;99.90
5392;DHT22;2719;53.624;9.786;2024-01-11T06:15:50;1.20;99.90
5392;DHT22;2719;53.624;9.786;2024-01-11T06:18:16;1.10;99.90
5392;DHT22;2719;53.624;9.786;2024-01-11T06:20:43;1.30;99.90
5392;DHT22;2719;53.624;9.786;2024-01-11T06:23:10;1.30;99.90
5392;DHT22;2719;53.624;9.786;2024-01-11T06:25:38;1.20;99.90
5392;DHT22;2719;53.624;9.786;2024-01-11T06:28:05;1.20;99.90
5392;DHT22;2719;53.624;9.786;2024-01-11T06:30:35;1.30;99.90
5392;DHT22;2719;53.624;9.786;2024-01-11T06:33:01;1.30;99.90
5392;DHT22;2719;53.624;9.786;2024-01-11T06:35:28;1.30;99.90
5392;DHT22;2719;53.624;9.786;2024-01-11T06:37:56;1.40;99.90
5392;DHT22;2719;53.624;9.786;2024-01-11T06:40:23;1.40;99.90
5392;DHT22;2719;53.624;9.786;2024-01-11T06:42:51;1.40;99.90
5392;DHT22;2719;53.624;9.786;2024-01-11T06:45:18;1.50;99.90
5392;DHT22;2719;53.624;9.786;2024-01-11T06:47:45;1.40;99.90
5392;DHT22;2719;53.624;9.786;2024-01-11T06:50:13;1.40;99.90
5392;DHT22;2719;53.624;9.786;2024-01-11T06:52:39;1.40;99.90
5392;DHT22;2719;53.624;9.786;2024-01-11T06:55:07;1.50;99.90
5392;DHT22;2719;53.624;9.786;2024-01-11T06:57:33;1.50;99.90
5392;DHT22;2719;53.624;9.786;2024-01-11T07:00:03;1.50;99.90
5392;DHT22;2719;53.624;9.786;2024-01-11T07:02:29;1.60;99.90
5392;DHT22;2719;53.624;9.786;2024-01-11T07:04:56;1.60;99.90
5392;DHT22;2719;53.624;9.786;2024-01-11T07:07:23;1.60;99.90
5392;DHT22;2719;53.624;9.786;2024-01-11T07:09:50;1.60;99.90
5392;DHT22;2719;53.624;9.786;2024-01-11T07:12:20;1.60;99.90
5392;DHT22;2719;53.624;9.786;2024-01-11T07:14:47;1.60;99.90
5392;DHT22;2719;53.624;9.786;2024-01-11T07:17:15;1.70;99.90
5392;DHT22;2719;53.624;9.786;2024-01-11T07:19:41;1.80;99.90
5392;DHT22;2719;53.624;9.786;2024-01-11T07:22:08;1.90;99.90
5392;DHT22;2719;53.624;9.786;2024-01-11T07:24:34;1.90;99.90
5392;DHT22;2719;53.624;9.786;2024-01-11T07:27:03;2.00;99.90
5392;DHT22;2719;53.624;9.786;2024-01-11T07:29:30;2.00;99.90
5392;DHT22;2719;53.624;9.786;2024-01-11T07:31:56;2.00;99.90
5392;DHT22;2719;53.624;9.786;2024-01-11T07:34:24;1.90;99.90
5392;DHT22;2719;53.624;9.786;2024-01-11T07:36:52;1.90;99.90
5392;DHT22;2719;53.624;9.786;2024-01-11T07:39:18;1.90;99.90
5392;DHT22;2719;53.624;9.786;2024-01-11T07:41:45;2.00;99.90
5392;DHT22;2719;53.624;9.786;2024-01-11T07:44:12;2.00;99.90
5392;DHT22;2719;53.624;9.786;2024-01-11T07:46:38;2.00;99.90
5392;DHT22;2719;53.624;9.786;2024-01-11T07:49:05;2.10;99.90
5392;DHT22;2719;53.624;9.786;2024-01-11T07:51:34;2.10;99.90
5392;DHT22;2719;53.624;9.786;2024-01-11T07:54:01;2.10;99.90
5392;DHT22;2719;53.624;9.786;2024-01-11T07:56:28;2.00;99.90
5392;DHT22;2719;53.624;9.786;2024-01-11T07:58:55;2.00;99.90
5392;DHT22;2719;53.624;9.786;2024-01-11T08:01:21;1.80;99.90
5392;DHT22;2719;53.624;9.786;2024-01-11T08:03:48;1.80;99.90
5392;DHT22;2719;53.624;9.786;2024-01-11T08:06:17;1.80;99.90
5392;DHT22;2719;53.624;9.786;2024-01-11T08:08:46;1.80;99.90
5392;DHT22;2719;53.624;9.786;2024-01-11T08:11:17;1.80;99.90
5392;DHT22;2719;53.624;9.786;2024-01-11T08:13:43;1.70;99.90
5392;DHT22;2719;53.624;9.786;2024-01-11T08:16:15;1.80;99.90
5392;DHT22;2719;53.624;9.786;2024-01-11T08:18:42;1.70;99.90
5392;DHT22;2719;53.624;9.786;2024-01-11T08:21:09;1.70;99.90
5392;DHT22;2719;53.624;9.786;2024-01-11T08:23:36;1.70;99.90
5392;DHT22;2719;53.624;9.786;2024-01-11T08:26:06;1.70;99.90
5392;DHT22;2719;53.624;9.786;2024-01-11T08:28:33;1.60;99.90
5392;DHT22;2719;53.624;9.786;2024-01-11T08:31:00;1.50;99.90
5392;DHT22;2719;53.624;9.786;2024-01-11T08:33:30;1.40;99.90
5392;DHT22;2719;53.624;9.786;2024-01-11T08:35:56;1.50;99.90
5392;DHT22;2719;53.624;9.786;2024-01-11T08:38:23;1.40;99.90
5392;DHT22;2719;53.624;9.786;2024-01-11T08:40:50;1.50;99.90
5392;DHT22;2719;53.624;9.786;2024-01-11T08:43:18;1.60;99.90
5392;DHT22;2719;53.624;9.786;2024-01-11T08:45:45;1.60;99.90
5392;DHT22;2719;53.624;9.786;2024-01-11T08:48:12;1.60;99.90
5392;DHT22;2719;53.624;9.786;2024-01-11T08:50:39;1.70;99.90
5392;DHT22;2719;53.624;9.786;2024-01-11T08:53:05;1.80;99.90
5392;DHT22;2719;53.624;9.786;2024-01-11T08:55:32;1.80;99.90
5392;DHT22;2719;53.624;9.786;2024-01-11T08:57:59;1.70;99.90
5392;DHT22;2719;53.624;9.786;2024-01-11T09:00:27;1.70;99.90
5392;DHT22;2719;53.624;9.786;2024-01-11T09:02:54;1.60;99.90
5392;DHT22;2719;53.624;9.786;2024-01-11T09:05:21;1.60;99.90
5392;DHT22;2719;53.624;9.786;2024-01-11T09:07:47;1.70;99.90
5392;DHT22;2719;53.624;9.786;2024-01-11T09:10:14;1.80;99.90
5392;DHT22;2719;53.624;9.786;2024-01-11T09:12:41;1.80;99.90
5392;DHT22;2719;53.624;9.786;2024-01-11T09:15:08;1.80;99.90
5392;DHT22;2719;53.624;9.786;2024-01-11T09:17:36;1.90;99.90
5392;DHT22;2719;53.624;9.786;2024-01-11T09:20:04;1.80;99.90
5392;DHT22;2719;53.624;9.786;2024-01-11T09:22:31;1.70;99.90
5392;DHT22;2719;53.624;9.786;2024-01-11T09:24:58;1.60;99.90
5392;DHT22;2719;53.624;9.786;2024-01-11T09:27:24;1.60;99.90
5392;DHT22;2719;53.624;9.786;2024-01-11T09:29:51;1.50;99.90
5392;DHT22;2719;53.624;9.786;2024-01-11T09:32:17;1.50;99.90
5392;DHT22;2719;53.624;9.786;2024-01-11T09:34:45;1.50;99.90
5392;DHT22;2719;53.624;9.786;2024-01-11T09:37:11;1.50;99.90
5392;DHT22;2719;53.624;9.786;2024-01-11T09:39:38;1.50;99.90
5392;DHT22;2719;53.624;9.786;2024-01-11T09:42:07;1.60;99.90
5392;DHT22;2719;53.624;9.786;2024-01-11T09:44:35;1.50;99.90
5392;DHT22;2719;53.624;9.786;2024-01-11T09:47:03;1.40;99.90
5392;DHT22;2719;53.624;9.786;2024-01-11T09:49:30;1.20;99.90
5392;DHT22;2719;53.624;9.786;2024-01-11T09:52:00;1.30;99.90
5392;DHT22;2719;53.624;9.786;2024-01-11T09:54:27;1.50;99.90
5392;DHT22;2719;53.624;9.786;2024-01-11T09:56:54;1.50;99.90
5392;DHT22;2719;53.624;9.786;2024-01-11T09:59:24;1.60;99.90
5392;DHT22;2719;53.624;9.786;2024-01-11T10:01:52;1.50;99.90
5392;DHT22;2719;53.624;9.786;2024-01-11T10:04:19;1.40;99.90
5392;DHT22;2719;53.624;9.786;2024-01-11T10:06:46;1.50;99.90
5392;DHT22;2719;53.624;9.786;2024-01-11T10:09:15;1.50;99.90
5392;DHT22;2719;53.624;9.786;2024-01-11T10:11:41;1.60;99.90
5392;DHT22;2719;53.624;9.786;2024-01-11T10:14:11;1.70;99.90
5392;DHT22;2719;53.624;9.786;2024-01-11T10:16:38;1.60;99.90
5392;DHT22;2719;53.624;9.786;2024-01-11T10:19:05;1.60;99.90
5392;DHT22;2719;53.624;9.786;2024-01-11T10:21:31;1.60;99.90
5392;DHT22;2719;53.624;9.786;2024-01-11T10:23:58;1.60;99.90
5392;DHT22;2719;53.624;9.786;2024-01-11T10:26:30;1.60;99.90
5392;DHT22;2719;53.624;9.786;2024-01-11T10:28:59;1.70;99.90
5392;DHT22;2719;53.624;9.786;2024-01-11T10:31:28;1.70;99.90
5392;DHT22;2719;53.624;9.786;2024-01-11T10:33:55;1.80;99.90
5392;DHT22;2719;53.624;9.786;2024-01-11T10:36:22;1.80;99.90
5392;DHT22;2719;53.624;9.786;2024-01-11T10:38:49;1.70;99.90
5392;DHT22;2719;53.624;9.786;2024-01-11T10:41:18;1.70;99.90
5392;DHT22;2719;53.624;9.786;2024-01-11T10:43:48;1.70;99.90
5392;DHT22;2719;53.624;9.786;2024-01-11T10:46:15;1.80;99.90
5392;DHT22;2719;53.624;9.786;2024-01-11T10:48:44;1.80;99.90
5392;DHT22;2719;53.624;9.786;2024-01-11T10:51:15;2.00;99.90
5392;DHT22;2719;53.624;9.786;2024-01-11T10:53:44;2.00;99.90
5392;DHT22;2719;53.624;9.786;2024-01-11T10:56:13;2.10;99.90
5392;DHT22;2719;53.624;9.786;2024-01-11T10:58:40;2.20;99.90
5392;DHT22;2719;53.624;9.786;2024-01-11T11:01:09;2.30;99.90
5392;DHT22;2719;53.624;9.786;2024-01-11T11:03:37;2.30;99.90
5392;DHT22;2719;53.624;9.786;2024-01-11T11:06:05;2.40;99.90
5392;DHT22;2719;53.624;9.786;2024-01-11T11:08:33;2.50;99.90
5392;DHT22;2719;53.624;9.786;2024-01-11T11:11:03;2.60;99.90
5392;DHT22;2719;53.624;9.786;2024-01-11T11:13:32;2.60;99.90
5392;DHT22;2719;53.624;9.786;2024-01-11T11:16:00;2.60;99.90
5392;DHT22;2719;53.624;9.786;2024-01-11T11:18:30;2.60;99.90
5392;DHT22;2719;53.624;9.786;2024-01-11T11:20:57;2.60;99.90
5392;DHT22;2719;53.624;9.786;2024-01-11T11:23:24;2.60;99.90
5392;DHT22;2719;53.624;9.786;2024-01-11T11:25:54;2.70;99.90
5392;DHT22;2719;53.624;9.786;2024-01-11T11:28:21;2.80;99.90
5392;DHT22;2719;53.624;9.786;2024-01-11T11:30:48;2.70;99.90
5392;DHT22;2719;53.624;9.786;2024-01-11T11:33:17;2.60;99.90
5392;DHT22;2719;53.624;9.786;2024-01-11T11:35:46;2.60;99.90
5392;DHT22;2719;53.624;9.786;2024-01-11T11:38:17;2.70;99.90
5392;DHT22;2719;53.624;9.786;2024-01-11T11:40:46;2.70;99.90
5392;DHT22;2719;53.624;9.786;2024-01-11T11:43:15;2.60;99.90
5392;DHT22;2719;53.624;9.786;2024-01-11T11:45:42;2.60;99.90
5392;DHT22;2719;53.624;9.786;2024-01-11T11:51:12;2.60;99.90
5392;DHT22;2719;53.624;9.786;2024-01-11T11:53:40;2.50;99.90
5392;DHT22;2719;53.624;9.786;2024-01-11T11:56:08;2.50;99.90
5392;DHT22;2719;53.624;9.786;2024-01-11T11:58:36;2.60;99.90
5392;DHT22;2719;53.624;9.786;2024-01-11T12:01:03;2.70;99.90
5392;DHT22;2719;53.624;9.786;2024-01-11T12:03:31;2.70;99.90
5392;DHT22;2719;53.624;9.786;2024-01-11T12:05:59;2.80;99.90
5392;DHT22;2719;53.624;9.786;2024-01-11T12:08:27;2.80;99.90
5392;DHT22;2719;53.624;9.786;2024-01-11T12:10:54;2.90;99.90
5392;DHT22;2719;53.624;9.786;2024-01-11T12:13:21;3.00;99.90
5392;DHT22;2719;53.624;9.786;2024-01-11T12:15:48;2.90;99.90
5392;DHT22;2719;53.624;9.786;2024-01-11T12:18:14;2.80;99.90
5392;DHT22;2719;53.624;9.786;2024-01-11T12:20:41;2.80;99.90
5392;DHT22;2719;53.624;9.786;2024-01-11T12:23:08;2.70;99.90
5392;DHT22;2719;53.624;9.786;2024-01-11T12:25:36;2.60;99.90
5392;DHT22;2719;53.624;9.786;2024-01-11T12:28:03;2.60;99.90
5392;DHT22;2719;53.624;9.786;2024-01-11T12:30:32;2.50;99.90
5392;DHT22;2719;53.624;9.786;2024-01-11T12:32:59;2.50;99.90
5392;DHT22;2719;53.624;9.786;2024-01-11T12:35:27;2.50;99.90
5392;DHT22;2719;53.624;9.786;2024-01-11T12:37:54;2.50;99.90
5392;DHT22;2719;53.624;9.786;2024-01-11T12:40:21;2.40;99.90
5392;DHT22;2719;53.624;9.786;2024-01-11T12:42:50;2.50;99.90
5392;DHT22;2719;53.624;9.786;2024-01-11T12:45:17;2.50;99.90
5392;DHT22;2719;53.624;9.786;2024-01-11T12:47:43;2.50;99.90
5392;DHT22;2719;53.624;9.786;2024-01-11T12:50:11;2.50;99.90
5392;DHT22;2719;53.624;9.786;2024-01-11T12:52:38;2.70;99.90
5392;DHT22;2719;53.624;9.786;2024-01-11T12:55:07;2.60;99.90
5392;DHT22;2719;53.624;9.786;2024-01-11T12:57:34;2.80;99.90
5392;DHT22;2719;53.624;9.786;2024-01-11T13:00:11;2.80;99.90
5392;DHT22;2719;53.624;9.786;2024-01-11T13:02:38;2.90;99.90
5392;DHT22;2719;53.624;9.786;2024-01-11T13:05:06;2.90;99.90
5392;DHT22;2719;53.624;9.786;2024-01-11T13:07:33;3.10;99.90
5392;DHT22;2719;53.624;9.786;2024-01-11T13:10:00;3.10;99.90
5392;DHT22;2719;53.624;9.786;2024-01-11T13:12:29;3.20;99.90
5392;DHT22;2719;53.624;9.786;2024-01-11T13:14:55;3.20;99.90
5392;DHT22;2719;53.624;9.786;2024-01-11T13:17:23;3.10;99.90
5392;DHT22;2719;53.624;9.786;2024-01-11T13:19:50;3.10;99.90
5392;DHT22;2719;53.624;9.786;2024-01-11T13:22:17;3.20;99.90
5392;DHT22;2719;53.624;9.786;2024-01-11T13:24:43;3.10;99.90
5392;DHT22;2719;53.624;9.786;2024-01-11T13:27:10;3.10;99.90
5392;DHT22;2719;53.624;9.786;2024-01-11T13:29:36;3.20;99.90
5392;DHT22;2719;53.624;9.786;2024-01-11T13:32:04;3.20;99.90
5392;DHT22;2719;53.624;9.786;2024-01-11T13:34:32;3.20;99.90
5392;DHT22;2719;53.624;9.786;2024-01-11T13:36:58;3.20;99.90
5392;DHT22;2719;53.624;9.786;2024-01-11T13:39:25;3.20;99.90
5392;DHT22;2719;53.624;9.786;2024-01-11T13:41:52;3.20;99.90
5392;DHT22;2719;53.624;9.786;2024-01-11T13:44:19;3.30;99.90
5392;DHT22;2719;53.624;9.786;2024-01-11T13:46:45;3.20;99.90
5392;DHT22;2719;53.624;9.786;2024-01-11T13:49:12;3.30;99.90
5392;DHT22;2719;53.624;9.786;2024-01-11T13:51:40;3.30;99.90
5392;DHT22;2719;53.624;9.786;2024-01-11T13:54:09;3.30;99.90
5392;DHT22;2719;53.624;9.786;2024-01-11T13:56:36;3.30;99.90
5392;DHT22;2719;53.624;9.786;2024-01-11T13:59:02;3.50;99.90
5392;DHT22;2719;53.624;9.786;2024-01-11T14:01:29;3.50;99.90
5392;DHT22;2719;53.624;9.786;2024-01-11T14:03:55;3.50;99.90
5392;DHT22;2719;53.624;9.786;2024-01-11T14:06:22;3.50;99.90
5392;DHT22;2719;53.624;9.786;2024-01-11T14:08:50;3.50;99.90
5392;DHT22;2719;53.624;9.786;2024-01-11T14:11:17;3.50;99.90
5392;DHT22;2719;53.624;9.786;2024-01-11T14:13:44;3.40;99.90
5392;DHT22;2719;53.624;9.786;2024-01-11T14:16:11;3.50;99.90
5392;DHT22;2719;53.624;9.786;2024-01-11T14:18:38;3.50;99.90
5392;DHT22;2719;53.624;9.786;2024-01-11T14:21:05;3.40;99.90
5392;DHT22;2719;53.624;9.786;2024-01-11T14:23:32;3.40;99.90
5392;DHT22;2719;53.624;9.786;2024-01-11T14:25:59;3.40;99.90
5392;DHT22;2719;53.624;9.786;2024-01-11T14:28:26;3.30;99.90
5392;DHT22;2719;53.624;9.786;2024-01-11T14:30:53;3.40;99.90
5392;DHT22;2719;53.624;9.786;2024-01-11T14:33:19;3.50;99.90
5392;DHT22;2719;53.624;9.786;2024-01-11T14:35:46;3.50;99.90
5392;DHT22;2719;53.624;9.786;2024-01-11T14:38:13;3.50;99.90
5392;DHT22;2719;53.624;9.786;2024-01-11T14:40:39;3.50;99.90
5392;DHT22;2719;53.624;9.786;2024-01-11T14:43:08;3.40;99.90
5392;DHT22;2719;53.624;9.786;2024-01-11T14:45:35;3.50;99.90
5392;DHT22;2719;53.624;9.786;2024-01-11T14:48:02;3.50;99.90
5392;DHT22;2719;53.624;9.786;2024-01-11T14:50:28;3.50;99.90
5392;DHT22;2719;53.624;9.786;2024-01-11T14:52:55;3.50;99.90
5392;DHT22;2719;53.624;9.786;2024-01-11T14:55:22;3.50;99.90
5392;DHT22;2719;53.624;9.786;2024-01-11T14:57:48;3.50;99.90
5392;DHT22;2719;53.624;9.786;2024-01-11T15:00:17;3.60;99.90
5392;DHT22;2719;53.624;9.786;2024-01-11T15:02:44;3.50;99.90
5392;DHT22;2719;53.624;9.786;2024-01-11T15:05:12;3.40;99.90
5392;DHT22;2719;53.624;9.786;2024-01-11T15:07:38;3.50;99.90
5392;DHT22;2719;53.624;9.786;2024-01-11T15:10:06;3.50;99.90
5392;DHT22;2719;53.624;9.786;2024-01-11T15:12:32;3.60;99.90
5392;DHT22;2719;53.624;9.786;2024-01-11T15:14:59;3.60;99.90
5392;DHT22;2719;53.624;9.786;2024-01-11T15:17:27;3.60;99.90
5392;DHT22;2719;53.624;9.786;2024-01-11T15:19:55;3.60;99.90
5392;DHT22;2719;53.624;9.786;2024-01-11T15:22:21;3.60;99.90
5392;DHT22;2719;53.624;9.786;2024-01-11T15:24:48;3.60;99.90
5392;DHT22;2719;53.624;9.786;2024-01-11T15:27:18;3.60;99.90
5392;DHT22;2719;53.624;9.786;2024-01-11T15:29:44;3.60;99.90
5392;DHT22;2719;53.624;9.786;2024-01-11T15:32:11;3.60;99.90
5392;DHT22;2719;53.624;9.786;2024-01-11T15:34:39;3.70;99.90
5392;DHT22;2719;53.624;9.786;2024-01-11T15:37:07;3.70;99.90
5392;DHT22;2719;53.624;9.786;2024-01-11T15:39:33;3.70;99.90
5392;DHT22;2719;53.624;9.786;2024-01-11T15:42:01;3.70;99.90
5392;DHT22;2719;53.624;9.786;2024-01-11T15:44:28;3.70;99.90
5392;DHT22;2719;53.624;9.786;2024-01-11T15:46:55;3.70;99.90
5392;DHT22;2719;53.624;9.786;2024-01-11T15:49:22;3.80;99.90
5392;DHT22;2719;53.624;9.786;2024-01-11T15:51:50;3.80;99.90
5392;DHT22;2719;53.624;9.786;2024-01-11T15:54:17;3.60;99.90
5392;DHT22;2719;53.624;9.786;2024-01-11T15:56:45;3.60;99.90
5392;DHT22;2719;53.624;9.786;2024-01-11T15:59:12;3.60;99.90
5392;DHT22;2719;53.624;9.786;2024-01-11T16:01:38;3.50;99.90
5392;DHT22;2719;53.624;9.786;2024-01-11T16:04:05;3.60;99.90
5392;DHT22;2719;53.624;9.786;2024-01-11T16:06:32;3.50;99.90
5392;DHT22;2719;53.624;9.786;2024-01-11T16:09:00;3.50;99.90
5392;DHT22;2719;53.624;9.786;2024-01-11T16:11:26;3.50;99.90
5392;DHT22;2719;53.624;9.786;2024-01-11T16:13:55;3.50;99.90
5392;DHT22;2719;53.624;9.786;2024-01-11T16:16:21;3.50;99.90
5392;DHT22;2719;53.624;9.786;2024-01-11T16:18:48;3.50;99.90